TRA5954 GCTS-LPMA
Flight info
| Callsign | TRA5954 |
|---|---|
| Flight time | 0h 58m |
| Altitude | 36000 |
| Route | BIMBO DCT EKNOT |
| Aircraft | B738/M-SDE2E3FGHIRWXY/LB1 |
Departure
| Time | 2026-05-04 09:38 |
|---|---|
| Airport | Tenerife Sur Airport (GCTS) |
Arrival
| Time | 2026-05-04 10:36 |
|---|---|
| Airport | Cristiano Ronaldo International Airport (LPMA) |
| Time | Latitude | Longitude | Altitude | Speed | Heading |
|---|---|---|---|---|---|
| 2026-05-04 09:08 | 28.04700 | -16.57734 | 211 ft | 0 kts | 340° |
| 2026-05-04 09:30 | 28.04697 | -16.57732 | 211 ft | 3 kts | 340° |
| 2026-05-04 09:31 | 28.04671 | -16.57721 | 210 ft | 4 kts | 337° |
| 2026-05-04 09:31 | 28.04647 | -16.57709 | 208 ft | 4 kts | 323° |
| 2026-05-04 09:31 | 28.04631 | -16.57687 | 211 ft | 4 kts | 285° |
| 2026-05-04 09:31 | 28.04630 | -16.57663 | 202 ft | 1 kts | 251° |
| 2026-05-04 09:34 | 28.04630 | -16.57664 | 202 ft | 1 kts | 251° |
| 2026-05-04 09:34 | 28.04619 | -16.57691 | 203 ft | 8 kts | 238° |
| 2026-05-04 09:34 | 28.04546 | -16.57690 | 204 ft | 7 kts | 160° |
| 2026-05-04 09:34 | 28.04479 | -16.57700 | 200 ft | 14 kts | 234° |
| 2026-05-04 09:35 | 28.04430 | -16.57830 | 206 ft | 22 kts | 249° |
| 2026-05-04 09:35 | 28.04367 | -16.58012 | 197 ft | 28 kts | 248° |
| 2026-05-04 09:35 | 28.04303 | -16.58196 | 206 ft | 24 kts | 249° |
| 2026-05-04 09:35 | 28.04234 | -16.58397 | 195 ft | 30 kts | 249° |
| 2026-05-04 09:37 | 28.04480 | -16.57153 | 207 ft | 151 kts | 68° |
| 2026-05-04 09:37 | 28.04918 | -16.55905 | 427 ft | 185 kts | 68° |
| 2026-05-04 09:38 | 28.05402 | -16.54474 | 957 ft | 206 kts | 69° |
| 2026-05-04 09:38 | 28.05944 | -16.52865 | 1272 ft | 228 kts | 69° |
| 2026-05-04 09:38 | 28.06536 | -16.51159 | 1887 ft | 238 kts | 68° |
| 2026-05-04 09:38 | 28.07174 | -16.49319 | 2253 ft | 261 kts | 68° |
| 2026-05-04 09:39 | 28.07851 | -16.47392 | 3084 ft | 263 kts | 68° |
| 2026-05-04 09:39 | 28.08532 | -16.45469 | 3965 ft | 264 kts | 68° |
| 2026-05-04 09:39 | 28.09197 | -16.43518 | 4776 ft | 267 kts | 69° |
| 2026-05-04 09:39 | 28.09843 | -16.41529 | 5567 ft | 271 kts | 70° |
| 2026-05-04 09:40 | 28.10491 | -16.39516 | 6352 ft | 274 kts | 70° |
| 2026-05-04 09:40 | 28.11145 | -16.37479 | 7119 ft | 277 kts | 70° |
| 2026-05-04 09:40 | 28.11808 | -16.35419 | 7886 ft | 280 kts | 70° |
| 2026-05-04 09:40 | 28.12480 | -16.33333 | 8635 ft | 283 kts | 70° |
| 2026-05-04 09:41 | 28.13159 | -16.31228 | 9368 ft | 286 kts | 70° |
| 2026-05-04 09:42 | 28.18553 | -16.14474 | 13331 ft | 348 kts | 70° |
| 2026-05-04 09:43 | 28.19386 | -16.11882 | 14039 ft | 351 kts | 70° |
| 2026-05-04 09:43 | 28.20225 | -16.09268 | 14772 ft | 354 kts | 70° |
| 2026-05-04 09:43 | 28.21152 | -16.06667 | 15449 ft | 359 kts | 60° |
| 2026-05-04 09:43 | 28.22784 | -16.04530 | 16111 ft | 362 kts | 36° |
| 2026-05-04 09:44 | 28.25030 | -16.03256 | 16816 ft | 364 kts | 15° |
| 2026-05-04 09:44 | 28.27540 | -16.02946 | 17481 ft | 366 kts | 355° |
| 2026-05-04 09:44 | 28.30083 | -16.03246 | 18148 ft | 369 kts | 353° |
| 2026-05-04 09:46 | 28.48592 | -16.06017 | 22185 ft | 395 kts | 352° |
| 2026-05-04 09:46 | 28.51328 | -16.06407 | 22700 ft | 398 kts | 352° |
| 2026-05-04 09:46 | 28.54091 | -16.06799 | 23199 ft | 401 kts | 352° |
| 2026-05-04 09:47 | 28.56870 | -16.07194 | 23717 ft | 404 kts | 352° |
| 2026-05-04 09:47 | 28.59668 | -16.07591 | 24194 ft | 407 kts | 352° |
| 2026-05-04 09:49 | 28.79844 | -16.10465 | 27190 ft | 426 kts | 352° |
| 2026-05-04 09:49 | 28.82795 | -16.10887 | 27576 ft | 429 kts | 352° |
| 2026-05-04 09:49 | 28.85769 | -16.11312 | 27917 ft | 432 kts | 352° |
| 2026-05-04 09:51 | 29.03706 | -16.09846 | 29900 ft | 447 kts | 17° |
| 2026-05-04 09:51 | 29.06677 | -16.08793 | 30199 ft | 449 kts | 17° |
| 2026-05-04 09:51 | 29.09670 | -16.07747 | 30493 ft | 451 kts | 17° |
| 2026-05-04 09:51 | 29.12679 | -16.06705 | 30778 ft | 453 kts | 17° |
| 2026-05-04 09:52 | 29.15698 | -16.05665 | 31113 ft | 453 kts | 16° |
| 2026-05-04 09:52 | 29.18713 | -16.04628 | 31527 ft | 451 kts | 16° |
| 2026-05-04 09:52 | 29.21709 | -16.03597 | 31941 ft | 449 kts | 16° |
| 2026-05-04 09:52 | 29.24700 | -16.02568 | 32298 ft | 449 kts | 16° |
| 2026-05-04 09:53 | 29.27693 | -16.01536 | 32608 ft | 449 kts | 16° |
| 2026-05-04 09:53 | 29.30680 | -16.00505 | 32949 ft | 448 kts | 17° |
| 2026-05-04 09:53 | 29.33664 | -15.99475 | 33306 ft | 447 kts | 17° |
| 2026-05-04 09:53 | 29.36638 | -15.98447 | 33641 ft | 446 kts | 17° |
| 2026-05-04 09:54 | 29.39613 | -15.97419 | 33953 ft | 446 kts | 17° |
| 2026-05-04 09:54 | 29.42582 | -15.96391 | 34247 ft | 446 kts | 17° |
| 2026-05-04 09:54 | 29.45548 | -15.95364 | 34561 ft | 445 kts | 17° |
| 2026-05-04 09:54 | 29.48508 | -15.94339 | 34862 ft | 444 kts | 17° |
| 2026-05-04 09:55 | 29.51472 | -15.93311 | 35136 ft | 444 kts | 17° |
| 2026-05-04 09:55 | 29.54420 | -15.92289 | 35384 ft | 444 kts | 17° |
| 2026-05-04 09:55 | 29.57378 | -15.91262 | 35644 ft | 444 kts | 17° |
| 2026-05-04 09:55 | 29.60331 | -15.90237 | 35931 ft | 443 kts | 17° |
| 2026-05-04 09:56 | 29.63285 | -15.89210 | 35990 ft | 447 kts | 17° |
| 2026-05-04 09:56 | 29.68289 | -15.87470 | 35999 ft | 449 kts | 17° |
| 2026-05-04 09:57 | 29.75183 | -15.85069 | 35984 ft | 441 kts | 17° |
| 2026-05-04 09:57 | 29.80098 | -15.83355 | 36005 ft | 440 kts | 17° |
| 2026-05-04 09:58 | 29.85958 | -15.81310 | 36001 ft | 440 kts | 17° |
| 2026-05-04 09:58 | 29.91815 | -15.79263 | 36003 ft | 440 kts | 17° |
| 2026-05-04 10:00 | 30.12779 | -15.79382 | 35999 ft | 440 kts | 350° |
| 2026-05-04 10:00 | 30.15807 | -15.79965 | 36005 ft | 441 kts | 350° |
| 2026-05-04 10:04 | 30.58476 | -15.87796 | 36003 ft | 444 kts | 351° |
| 2026-05-04 10:04 | 30.64570 | -15.88917 | 36001 ft | 443 kts | 351° |
| 2026-05-04 10:05 | 30.70698 | -15.90045 | 36000 ft | 443 kts | 351° |
| 2026-05-04 10:05 | 30.76775 | -15.91165 | 36000 ft | 442 kts | 351° |
| 2026-05-04 10:06 | 30.82847 | -15.92286 | 35923 ft | 442 kts | 351° |
| 2026-05-04 10:06 | 30.85886 | -15.92847 | 35640 ft | 439 kts | 351° |
| 2026-05-04 10:06 | 30.88882 | -15.93401 | 35258 ft | 434 kts | 351° |
| 2026-05-04 10:08 | 31.06332 | -15.96634 | 32918 ft | 414 kts | 351° |
| 2026-05-04 10:08 | 31.09170 | -15.97161 | 32530 ft | 411 kts | 351° |
| 2026-05-04 10:08 | 31.11986 | -15.97684 | 32145 ft | 409 kts | 351° |
| 2026-05-04 10:08 | 31.14784 | -15.98204 | 31762 ft | 406 kts | 351° |
| 2026-05-04 10:09 | 31.17563 | -15.98721 | 31383 ft | 403 kts | 351° |
| 2026-05-04 10:09 | 31.20326 | -15.99236 | 31006 ft | 401 kts | 351° |
| 2026-05-04 10:09 | 31.23071 | -15.99747 | 30617 ft | 398 kts | 351° |
| 2026-05-04 10:09 | 31.25799 | -16.00255 | 30255 ft | 396 kts | 351° |
| 2026-05-04 10:10 | 31.28507 | -16.00760 | 29888 ft | 393 kts | 351° |
| 2026-05-04 10:10 | 31.31201 | -16.01263 | 29515 ft | 390 kts | 351° |
| 2026-05-04 10:10 | 31.33875 | -16.01762 | 29132 ft | 388 kts | 351° |
| 2026-05-04 10:10 | 31.36530 | -16.02258 | 28750 ft | 385 kts | 351° |
| 2026-05-04 10:11 | 31.39171 | -16.02752 | 28369 ft | 383 kts | 351° |
| 2026-05-04 10:11 | 31.41793 | -16.03243 | 27988 ft | 380 kts | 350° |
| 2026-05-04 10:11 | 31.44371 | -16.03893 | 27611 ft | 378 kts | 345° |
| 2026-05-04 10:11 | 31.46888 | -16.04741 | 27243 ft | 375 kts | 342° |
| 2026-05-04 10:12 | 31.49374 | -16.05649 | 26866 ft | 373 kts | 342° |
| 2026-05-04 10:12 | 31.51842 | -16.06559 | 26495 ft | 371 kts | 342° |
| 2026-05-04 10:12 | 31.54297 | -16.07453 | 26127 ft | 369 kts | 342° |
| 2026-05-04 10:12 | 31.56742 | -16.08330 | 25760 ft | 366 kts | 343° |
| 2026-05-04 10:13 | 31.59174 | -16.09190 | 25394 ft | 364 kts | 343° |
| 2026-05-04 10:13 | 31.61596 | -16.10038 | 25031 ft | 362 kts | 343° |
| 2026-05-04 10:13 | 31.64003 | -16.10878 | 24669 ft | 360 kts | 343° |
| 2026-05-04 10:13 | 31.66400 | -16.11712 | 24309 ft | 358 kts | 343° |
| 2026-05-04 10:14 | 31.68779 | -16.12539 | 23945 ft | 356 kts | 343° |
| 2026-05-04 10:14 | 31.71147 | -16.13363 | 23589 ft | 354 kts | 343° |
| 2026-05-04 10:16 | 31.87353 | -16.19007 | 21142 ft | 340 kts | 343° |
| 2026-05-04 10:16 | 31.89618 | -16.19797 | 20798 ft | 339 kts | 343° |
| 2026-05-04 10:16 | 31.91872 | -16.20585 | 20455 ft | 337 kts | 343° |
| 2026-05-04 10:16 | 31.94113 | -16.21368 | 20114 ft | 335 kts | 343° |
| 2026-05-04 10:17 | 31.96341 | -16.22147 | 19775 ft | 333 kts | 343° |
| 2026-05-04 10:17 | 31.98560 | -16.22923 | 19437 ft | 332 kts | 343° |
| 2026-05-04 10:19 | 32.13768 | -16.28253 | 17110 ft | 320 kts | 343° |
| 2026-05-04 10:19 | 32.15896 | -16.29000 | 16782 ft | 318 kts | 343° |
| 2026-05-04 10:19 | 32.18013 | -16.29742 | 16454 ft | 317 kts | 343° |
| 2026-05-04 10:19 | 32.20129 | -16.30457 | 16132 ft | 315 kts | 344° |
| 2026-05-04 10:20 | 32.22233 | -16.31156 | 15809 ft | 314 kts | 344° |
| 2026-05-04 10:20 | 32.24331 | -16.31850 | 15486 ft | 312 kts | 344° |
| 2026-05-04 10:20 | 32.26419 | -16.32542 | 15165 ft | 311 kts | 344° |
| 2026-05-04 10:20 | 32.28494 | -16.33230 | 14842 ft | 309 kts | 344° |
| 2026-05-04 10:21 | 32.30560 | -16.33918 | 14526 ft | 308 kts | 344° |
| 2026-05-04 10:21 | 32.32617 | -16.34603 | 14208 ft | 306 kts | 344° |
| 2026-05-04 10:21 | 32.34664 | -16.35285 | 13892 ft | 305 kts | 344° |
| 2026-05-04 10:21 | 32.36700 | -16.35965 | 13582 ft | 303 kts | 344° |
| 2026-05-04 10:22 | 32.40771 | -16.37325 | 12951 ft | 301 kts | 344° |
| 2026-05-04 10:22 | 32.42779 | -16.37997 | 12630 ft | 299 kts | 344° |
| 2026-05-04 10:22 | 32.44753 | -16.38657 | 12323 ft | 298 kts | 344° |
| 2026-05-04 10:23 | 32.46766 | -16.39331 | 12009 ft | 296 kts | 343° |
| 2026-05-04 10:23 | 32.48747 | -16.39995 | 11699 ft | 295 kts | 343° |
| 2026-05-04 10:25 | 32.62217 | -16.44515 | 9930 ft | 273 kts | 343° |
| 2026-05-04 10:25 | 32.64042 | -16.45129 | 9655 ft | 272 kts | 343° |
| 2026-05-04 10:25 | 32.65854 | -16.45738 | 9391 ft | 270 kts | 343° |
| 2026-05-04 10:25 | 32.67660 | -16.46346 | 9123 ft | 269 kts | 343° |
| 2026-05-04 10:26 | 32.69456 | -16.46951 | 8854 ft | 268 kts | 343° |
| 2026-05-04 10:26 | 32.71244 | -16.47553 | 8585 ft | 267 kts | 343° |
| 2026-05-04 10:26 | 32.73024 | -16.48152 | 8313 ft | 265 kts | 343° |
| 2026-05-04 10:26 | 32.74796 | -16.48749 | 8046 ft | 264 kts | 343° |
| 2026-05-04 10:27 | 32.76562 | -16.49345 | 7778 ft | 263 kts | 343° |
| 2026-05-04 10:27 | 32.78311 | -16.49971 | 7507 ft | 262 kts | 336° |
| 2026-05-04 10:27 | 32.79750 | -16.51254 | 7243 ft | 259 kts | 311° |
| 2026-05-04 10:27 | 32.80911 | -16.52879 | 6989 ft | 257 kts | 310° |
| 2026-05-04 10:28 | 32.82070 | -16.54496 | 6717 ft | 257 kts | 310° |
| 2026-05-04 10:28 | 32.83228 | -16.56103 | 6463 ft | 256 kts | 310° |
| 2026-05-04 10:28 | 32.84387 | -16.57706 | 6202 ft | 255 kts | 310° |
| 2026-05-04 10:28 | 32.85540 | -16.59301 | 5940 ft | 254 kts | 309° |
| 2026-05-04 10:29 | 32.86338 | -16.61130 | 5766 ft | 248 kts | 280° |
| 2026-05-04 10:29 | 32.86252 | -16.63119 | 5618 ft | 241 kts | 250° |
| 2026-05-04 10:29 | 32.85321 | -16.64753 | 5426 ft | 244 kts | 219° |
| 2026-05-04 10:29 | 32.83840 | -16.65783 | 5228 ft | 251 kts | 206° |
| 2026-05-04 10:30 | 32.82240 | -16.66660 | 4966 ft | 254 kts | 205° |
| 2026-05-04 10:30 | 32.80638 | -16.67514 | 4723 ft | 249 kts | 204° |
| 2026-05-04 10:30 | 32.79083 | -16.68337 | 4467 ft | 240 kts | 204° |
| 2026-05-04 10:30 | 32.77558 | -16.69050 | 4207 ft | 233 kts | 197° |
| 2026-05-04 10:31 | 32.76008 | -16.69568 | 3962 ft | 230 kts | 195° |
| 2026-05-04 10:31 | 32.74461 | -16.70062 | 3743 ft | 231 kts | 195° |
| 2026-05-04 10:32 | 32.65472 | -16.73992 | 2479 ft | 237 kts | 204° |
| 2026-05-04 10:33 | 32.64475 | -16.74514 | 2256 ft | 227 kts | 204° |
| 2026-05-04 10:33 | 32.63094 | -16.75235 | 2152 ft | 206 kts | 204° |
| 2026-05-04 10:33 | 32.61828 | -16.75895 | 2134 ft | 195 kts | 204° |
| 2026-05-04 10:33 | 32.60599 | -16.76648 | 2140 ft | 203 kts | 221° |
| 2026-05-04 10:34 | 32.59955 | -16.78102 | 2035 ft | 208 kts | 265° |
| 2026-05-04 10:34 | 32.60356 | -16.79708 | 1791 ft | 205 kts | 310° |
| 2026-05-04 10:34 | 32.61526 | -16.80545 | 1609 ft | 194 kts | 342° |
| 2026-05-04 10:34 | 32.62834 | -16.80744 | 1347 ft | 189 kts | 4° |
| 2026-05-04 10:35 | 32.64106 | -16.80588 | 1142 ft | 175 kts | 5° |
| 2026-05-04 10:35 | 32.65252 | -16.80455 | 905 ft | 159 kts | 5° |
| 2026-05-04 10:35 | 32.66293 | -16.80291 | 796 ft | 149 kts | 12° |
| 2026-05-04 10:35 | 32.67284 | -16.79919 | 684 ft | 151 kts | 21° |
| 2026-05-04 10:36 | 32.68195 | -16.79301 | 422 ft | 149 kts | 39° |
| 2026-05-04 10:36 | 32.68926 | -16.78459 | 241 ft | 146 kts | 43° |
| 2026-05-04 10:36 | 32.69625 | -16.77630 | 178 ft | 133 kts | 42° |
| 2026-05-04 10:36 | 32.70145 | -16.77037 | 175 ft | 45 kts | 44° |
| 2026-05-04 10:37 | 32.70289 | -16.76872 | 175 ft | 28 kts | 44° |
| 2026-05-04 10:37 | 32.70403 | -16.76789 | 175 ft | 16 kts | 71° |
| 2026-05-04 10:37 | 32.70372 | -16.76774 | 175 ft | 6 kts | 213° |
| 2026-05-04 10:37 | 32.70320 | -16.76828 | 175 ft | 15 kts | 225° |
| 2026-05-04 10:39 | 32.69435 | -16.77857 | 175 ft | 33 kts | 225° |
| 2026-05-04 10:39 | 32.69338 | -16.77960 | 175 ft | 8 kts | 198° |
| 2026-05-04 10:39 | 32.69293 | -16.77918 | 175 ft | 11 kts | 102° |
| 2026-05-04 10:40 | 32.69318 | -16.77823 | 175 ft | 14 kts | 48° |
| 2026-05-04 10:40 | 32.69364 | -16.77767 | 175 ft | 8 kts | 47° |
| 2026-05-04 10:40 | 32.69360 | -16.77727 | 175 ft | 1 kts | 131° |
| 2026-05-04 10:40 | 32.69351 | -16.77717 | 175 ft | 2 kts | 135° |
| 2026-05-04 10:41 | 32.69340 | -16.77704 | 175 ft | 1 kts | 137° |
| 2026-05-04 10:41 | 32.69334 | -16.77698 | 175 ft | 1 kts | 137° |